Time;durP1;ratioP1;P1;durP2;ratioP2;P2;SDS_P1;SDS_P2;PMS_P1;PMS_P2;Temp;Humidity;BMP_temperature;BMP_pressure;BME280_temperature;BME280_humidity;BME280_pressure;Samples;Min_cycle;Max_cycle;Signal;HPM_P1;HPM_P2
2022/05/31 00:01:26;;;;;;;17.50;4.70;;;;;;;;;;4967566;28;20047;-70
2022/05/31 00:03:51;;;;;;;10.70;4.95;;;;;;;;;;4956530;28;20109;-70
2022/05/31 00:06:17;;;;;;;11.60;4.43;;;;;;;;;;4966728;28;20039;-69
2022/05/31 00:08:43;;;;;;;13.40;5.03;;;;;;;;;;4968617;28;20055;-69
2022/05/31 00:11:09;;;;;;;15.48;5.15;;;;;;;;;;4968927;28;20410;-71
2022/05/31 00:13:35;;;;;;;12.70;5.07;;;;;;;;;;4952912;28;20083;-71
2022/05/31 00:16:01;;;;;;;13.60;4.85;;;;;;;;;;4966570;28;20054;-69
2022/05/31 00:18:27;;;;;;;11.68;4.57;;;;;;;;;;4969646;28;20066;-72
2022/05/31 00:20:53;;;;;;;14.63;5.40;;;;;;;;;;4966466;28;20167;-72
2022/05/31 00:23:20;;;;;;;13.75;5.07;;;;;;;;;;4967311;28;20050;-70
2022/05/31 00:25:46;;;;;;;10.18;4.43;;;;;;;;;;4968674;28;20039;-69
2022/05/31 00:28:12;;;;;;;13.43;4.70;;;;;;;;;;4969539;28;20054;-72
2022/05/31 00:30:39;;;;;;;14.98;4.60;;;;;;;;;;4963462;28;20135;-69
2022/05/31 00:33:07;;;;;;;12.43;4.72;;;;;;;;;;4966276;28;20082;-70
2022/05/31 00:35:39;;;;;;;12.20;4.40;;;;;;;;;;4985188;28;20521;-69
2022/05/31 00:38:07;;;;;;;14.68;5.10;;;;;;;;;;4968094;28;20438;-70
2022/05/31 00:40:34;;;;;;;12.10;4.75;;;;;;;;;;4976561;28;20049;-70
2022/05/31 00:43:03;;;;;;;16.58;5.10;;;;;;;;;;4972945;28;20131;-69
2022/05/31 00:45:33;;;;;;;12.85;4.57;;;;;;;;;;4956438;28;20054;-69
2022/05/31 00:47:59;;;;;;;16.73;4.97;;;;;;;;;;4976357;28;20500;-69
2022/05/31 00:50:44;;;;;;;24.88;5.07;;;;;;;;;;4977905;28;20070;-69
2022/05/31 00:53:20;;;;;;;11.95;4.50;;;;;;;;;;4963940;28;20142;-70
2022/05/31 00:55:50;;;;;;;12.35;4.43;;;;;;;;;;4983053;28;20424;-72
2022/05/31 00:58:29;;;;;;;11.00;4.93;;;;;;;;;;4989424;28;20104;-70
2022/05/31 01:00:59;;;;;;;11.02;4.57;;;;;;;;;;4966064;28;20054;-70
2022/05/31 01:03:27;;;;;;;14.85;5.22;;;;;;;;;;4972380;28;20129;-69
2022/05/31 01:05:53;;;;;;;12.55;4.75;;;;;;;;;;4976907;28;20514;-70
2022/05/31 01:08:19;;;;;;;16.40;5.28;;;;;;;;;;4968149;28;20048;-68
2022/05/31 01:10:45;;;;;;;14.07;4.97;;;;;;;;;;4975084;28;20070;-69
2022/05/31 01:13:16;;;;;;;17.52;5.22;;;;;;;;;;4976317;28;20062;-69
2022/05/31 01:15:44;;;;;;;14.07;4.75;;;;;;;;;;4964199;28;20133;-70
2022/05/31 01:18:11;;;;;;;12.02;4.65;;;;;;;;;;4972408;28;20050;-71
2022/05/31 01:20:38;;;;;;;13.60;4.80;;;;;;;;;;4974279;28;20082;-70
2022/05/31 01:23:16;;;;;;;14.57;5.22;;;;;;;;;;4979926;28;20042;-72
2022/05/31 01:26:04;;;;;;;9.60;4.70;;;;;;;;;;4971370;28;20090;-70
2022/05/31 01:28:43;;;;;;;11.60;4.88;;;;;;;;;;4965719;28;20315;-70
2022/05/31 01:31:24;;;;;;;17.13;5.70;;;;;;;;;;4964925;28;20051;-70
2022/05/31 01:34:18;;;;;;;13.68;5.50;;;;;;;;;;4968084;28;20049;-70
2022/05/31 01:36:49;;;;;;;13.40;5.18;;;;;;;;;;4966601;28;20112;-72
2022/05/31 01:39:40;;;;;;;14.70;5.63;;;;;;;;;;4951739;28;20077;-72
2022/05/31 01:42:18;;;;;;;17.98;5.10;;;;;;;;;;4967564;28;20455;-71
2022/05/31 01:44:48;;;;;;;14.07;5.20;;;;;;;;;;4970077;28;20508;-69
2022/05/31 01:47:15;;;;;;;21.13;5.72;;;;;;;;;;4957978;28;20040;-73
2022/05/31 01:49:46;;;;;;;16.55;5.60;;;;;;;;;;4972448;28;20090;-69
2022/05/31 01:52:13;;;;;;;16.13;5.25;;;;;;;;;;4970422;28;20098;-72
2022/05/31 01:54:41;;;;;;;13.90;6.10;;;;;;;;;;4973522;28;20068;-71
2022/05/31 01:57:10;;;;;;;14.10;5.40;;;;;;;;;;4969485;28;20534;-72
2022/05/31 01:59:41;;;;;;;12.55;5.15;;;;;;;;;;4977962;28;20191;-69
2022/05/31 02:02:08;;;;;;;19.00;5.88;;;;;;;;;;4964530;28;20057;-71
2022/05/31 02:04:34;;;;;;;27.50;6.22;;;;;;;;;;4964229;28;20074;-68
2022/05/31 02:07:15;;;;;;;14.30;5.95;;;;;;;;;;4962537;28;20641;-70
2022/05/31 02:09:43;;;;;;;19.33;6.28;;;;;;;;;;4966274;28;20530;-70
2022/05/31 02:12:11;;;;;;;23.08;5.95;;;;;;;;;;4990567;28;20066;-70
2022/05/31 02:14:37;;;;;;;20.40;6.07;;;;;;;;;;4979595;28;20086;-71
2022/05/31 02:17:04;;;;;;;18.25;6.55;;;;;;;;;;4981331;28;20050;-70
2022/05/31 02:19:30;;;;;;;15.43;5.90;;;;;;;;;;4977400;28;20047;-70
2022/05/31 02:21:59;;;;;;;19.58;6.38;;;;;;;;;;4966107;28;20508;-70
2022/05/31 02:24:26;;;;;;;14.75;6.00;;;;;;;;;;4972453;28;20375;-71
2022/05/31 02:26:52;;;;;;;17.60;6.63;;;;;;;;;;4977996;28;20046;-73
2022/05/31 02:29:26;;;;;;;18.63;6.97;;;;;;;;;;4979830;28;20042;-71
2022/05/31 02:31:53;;;;;;;15.35;6.32;;;;;;;;;;4974152;28;20074;-69
2022/05/31 02:34:22;;;;;;;15.93;5.43;;;;;;;;;;4979827;28;20116;-71
2022/05/31 02:36:49;;;;;;;10.80;5.88;;;;;;;;;;4970730;28;20055;-69
2022/05/31 02:39:16;;;;;;;19.33;6.05;;;;;;;;;;4978611;28;20065;-68
2022/05/31 02:41:42;;;;;;;13.00;5.90;;;;;;;;;;4977433;28;20373;-69
2022/05/31 02:44:09;;;;;;;15.80;6.00;;;;;;;;;;4976530;28;20039;-70
2022/05/31 02:46:35;;;;;;;16.45;5.70;;;;;;;;;;4973442;28;20062;-71
2022/05/31 02:49:04;;;;;;;14.55;5.85;;;;;;;;;;4970123;28;20393;-69
2022/05/31 02:51:34;;;;;;;25.02;6.25;;;;;;;;;;4965698;28;20479;-70
2022/05/31 02:54:00;;;;;;;14.75;6.20;;;;;;;;;;4956696;28;20425;-69
2022/05/31 02:56:26;;;;;;;18.00;7.05;;;;;;;;;;4971979;28;20055;-69
2022/05/31 02:58:52;;;;;;;16.35;5.95;;;;;;;;;;4973009;28;20066;-69
2022/05/31 03:01:25;;;;;;;17.05;6.40;;;;;;;;;;4970631;28;20109;-70
2022/05/31 03:03:51;;;;;;;13.45;6.20;;;;;;;;;;4968448;28;20039;-70
2022/05/31 03:06:18;;;;;;;11.10;5.63;;;;;;;;;;4971992;28;20061;-69
2022/05/31 03:08:44;;;;;;;13.63;5.72;;;;;;;;;;4970038;28;20382;-70
2022/05/31 03:11:16;;;;;;;13.73;5.88;;;;;;;;;;4965312;28;20065;-69
2022/05/31 03:13:44;;;;;;;17.10;6.32;;;;;;;;;;4963503;28;20417;-67
2022/05/31 03:16:12;;;;;;;13.38;6.43;;;;;;;;;;4972371;28;20039;-69
2022/05/31 03:18:43;;;;;;;14.65;6.15;;;;;;;;;;4967997;28;20043;-69
2022/05/31 03:21:15;;;;;;;12.90;6.82;;;;;;;;;;4963904;28;20053;-70
2022/05/31 03:23:45;;;;;;;17.35;6.93;;;;;;;;;;4972536;28;20046;-72
2022/05/31 03:26:13;;;;;;;20.70;6.82;;;;;;;;;;4970835;28;20047;-72
2022/05/31 03:28:39;;;;;;;15.45;6.28;;;;;;;;;;4967603;28;20051;-70
2022/05/31 03:31:07;;;;;;;17.67;6.55;;;;;;;;;;4962669;28;20055;-73
2022/05/31 03:33:33;;;;;;;13.23;6.85;;;;;;;;;;4970040;28;20047;-70
2022/05/31 03:35:59;;;;;;;15.43;6.90;;;;;;;;;;4969167;28;20046;-71
2022/05/31 03:38:25;;;;;;;12.07;6.05;;;;;;;;;;4969600;28;20042;-69
2022/05/31 03:40:58;;;;;;;16.73;6.85;;;;;;;;;;4969638;28;20446;-70
2022/05/31 03:43:35;;;;;;;16.15;6.43;;;;;;;;;;4969957;28;20409;-70
2022/05/31 03:46:01;;;;;;;13.15;7.18;;;;;;;;;;4969754;28;20058;-70
2022/05/31 03:48:27;;;;;;;15.45;6.70;;;;;;;;;;4971844;28;20444;-71
2022/05/31 03:51:02;;;;;;;13.15;7.18;;;;;;;;;;4976427;28;20061;-70
2022/05/31 03:53:29;;;;;;;23.63;7.05;;;;;;;;;;4957697;28;20043;-71
2022/05/31 03:55:55;;;;;;;16.77;6.72;;;;;;;;;;4966126;28;20047;-70
2022/05/31 03:58:21;;;;;;;16.00;6.95;;;;;;;;;;4967612;28;20051;-69
2022/05/31 04:00:47;;;;;;;16.38;7.60;;;;;;;;;;4964004;28;20125;-70
2022/05/31 04:03:14;;;;;;;15.82;6.93;;;;;;;;;;4967542;28;20452;-71
2022/05/31 04:05:40;;;;;;;16.20;7.60;;;;;;;;;;4973797;28;20039;-72
2022/05/31 04:08:10;;;;;;;14.05;7.20;;;;;;;;;;4974218;28;20054;-71
2022/05/31 04:10:37;;;;;;;16.67;7.20;;;;;;;;;;4967620;28;20127;-70
2022/05/31 04:13:03;;;;;;;16.58;7.07;;;;;;;;;;4967007;28;20086;-70
2022/05/31 04:15:30;;;;;;;14.68;7.25;;;;;;;;;;4969713;28;20043;-69
2022/05/31 04:17:55;;;;;;;17.48;6.85;;;;;;;;;;4979315;28;20073;-70
2022/05/31 04:20:21;;;;;;;18.48;6.97;;;;;;;;;;4965620;28;20484;-73
2022/05/31 04:22:47;;;;;;;16.95;7.07;;;;;;;;;;4985723;28;20058;-71
2022/05/31 04:25:13;;;;;;;19.38;7.25;;;;;;;;;;4970069;28;20404;-66
2022/05/31 04:27:39;;;;;;;15.07;6.97;;;;;;;;;;4972276;28;20042;-70
2022/05/31 04:30:06;;;;;;;24.95;7.03;;;;;;;;;;4967541;28;20471;-72
2022/05/31 04:32:31;;;;;;;15.40;6.47;;;;;;;;;;4969695;28;20133;-73
2022/05/31 04:34:57;;;;;;;13.38;6.75;;;;;;;;;;4972854;28;20138;-72
2022/05/31 04:37:23;;;;;;;13.80;6.38;;;;;;;;;;4965370;28;20292;-71
2022/05/31 04:39:49;;;;;;;18.35;6.95;;;;;;;;;;4978489;28;20046;-72
2022/05/31 04:42:16;;;;;;;12.60;6.35;;;;;;;;;;4968114;28;20047;-71
2022/05/31 04:44:42;;;;;;;13.57;6.65;;;;;;;;;;4965087;28;20049;-74
2022/05/31 04:47:08;;;;;;;16.70;7.63;;;;;;;;;;4953493;28;20101;-71
2022/05/31 04:49:35;;;;;;;17.67;7.53;;;;;;;;;;4957687;28;20154;-72
2022/05/31 04:52:01;;;;;;;20.58;7.80;;;;;;;;;;4957755;28;20060;-72
2022/05/31 04:54:30;;;;;;;17.00;7.05;;;;;;;;;;4957134;28;20544;-70
2022/05/31 04:56:59;;;;;;;13.82;7.88;;;;;;;;;;4960114;28;20444;-72
2022/05/31 04:59:26;;;;;;;25.25;7.80;;;;;;;;;;4965892;28;20061;-71
2022/05/31 05:01:54;;;;;;;16.98;7.47;;;;;;;;;;4964523;28;20057;-72
2022/05/31 05:04:20;;;;;;;12.10;7.05;;;;;;;;;;4965453;28;20042;-74
2022/05/31 05:06:46;;;;;;;11.70;7.20;;;;;;;;;;4962265;28;20082;-72
2022/05/31 05:09:12;;;;;;;18.42;7.47;;;;;;;;;;4964762;28;20054;-72
2022/05/31 05:11:38;;;;;;;14.25;7.10;;;;;;;;;;4955462;28;20065;-75
2022/05/31 05:14:05;;;;;;;19.75;7.55;;;;;;;;;;4953081;28;20047;-72
2022/05/31 05:16:30;;;;;;;15.00;7.10;;;;;;;;;;4961098;28;20045;-75
2022/05/31 05:18:56;;;;;;;11.85;6.95;;;;;;;;;;4958354;28;20047;-73
2022/05/31 05:21:22;;;;;;;18.60;7.05;;;;;;;;;;4958887;28;21615;-71
2022/05/31 05:23:48;;;;;;;15.23;7.30;;;;;;;;;;4958322;28;20062;-71
2022/05/31 05:26:14;;;;;;;17.95;7.93;;;;;;;;;;4961086;28;20050;-71
2022/05/31 05:31:30;;;;;;;14.15;7.00;;;;;;;;;;4960953;28;20228;-71
2022/05/31 05:33:58;;;;;;;16.35;7.07;;;;;;;;;;4962210;28;20412;-71
2022/05/31 05:36:24;;;;;;;12.75;6.82;;;;;;;;;;4958766;28;20043;-72
2022/05/31 05:38:51;;;;;;;14.02;7.05;;;;;;;;;;4964598;28;20058;-71
2022/05/31 05:41:18;;;;;;;15.40;7.07;;;;;;;;;;4966073;28;20490;-71
2022/05/31 05:43:44;;;;;;;15.63;7.90;;;;;;;;;;4963768;28;20866;-71
2022/05/31 05:46:21;;;;;;;16.55;7.53;;;;;;;;;;4962543;28;20109;-70
2022/05/31 05:48:48;;;;;;;13.82;7.47;;;;;;;;;;4959597;28;20113;-72
2022/05/31 05:51:20;;;;;;;21.15;7.85;;;;;;;;;;4958660;28;20062;-69
2022/05/31 05:53:46;;;;;;;18.23;7.93;;;;;;;;;;4958647;28;20270;-69
2022/05/31 05:56:13;;;;;;;17.85;9.18;;;;;;;;;;4964000;28;20500;-69
2022/05/31 05:58:40;;;;;;;18.25;8.82;;;;;;;;;;4964195;28;20459;-71
2022/05/31 06:01:18;;;;;;;16.35;7.50;;;;;;;;;;4959783;28;20046;-71
2022/05/31 06:03:57;;;;;;;18.23;7.47;;;;;;;;;;4960504;28;20046;-71
2022/05/31 06:06:24;;;;;;;16.60;7.82;;;;;;;;;;4963961;28;20219;-71
2022/05/31 06:09:02;;;;;;;20.25;8.57;;;;;;;;;;4962780;28;20527;-71
2022/05/31 06:11:32;;;;;;;15.75;8.30;;;;;;;;;;4965704;28;20141;-72
2022/05/31 06:14:10;;;;;;;17.38;8.65;;;;;;;;;;4960127;28;20039;-72
2022/05/31 06:16:43;;;;;;;15.73;8.20;;;;;;;;;;4957350;28;20058;-72
2022/05/31 06:19:14;;;;;;;15.30;8.30;;;;;;;;;;4959465;28;20047;-71
2022/05/31 06:21:40;;;;;;;22.65;8.45;;;;;;;;;;4958308;28;20059;-72
2022/05/31 06:24:06;;;;;;;17.40;8.45;;;;;;;;;;4956011;28;20080;-69
2022/05/31 06:26:32;;;;;;;16.27;9.00;;;;;;;;;;4975639;28;20047;-69
2022/05/31 06:28:58;;;;;;;15.45;8.13;;;;;;;;;;4967690;28;20059;-67
2022/05/31 06:31:24;;;;;;;19.60;9.95;;;;;;;;;;4962856;28;20062;-71
2022/05/31 06:33:51;;;;;;;19.50;8.85;;;;;;;;;;4968658;28;20051;-70
2022/05/31 06:36:17;;;;;;;15.85;9.13;;;;;;;;;;4965214;28;20055;-69
2022/05/31 06:38:43;;;;;;;23.50;9.32;;;;;;;;;;4964264;28;20073;-69
2022/05/31 06:41:09;;;;;;;23.52;9.32;;;;;;;;;;4963590;28;20130;-69
2022/05/31 06:43:35;;;;;;;25.20;9.30;;;;;;;;;;4966021;28;20308;-65
2022/05/31 06:46:05;;;;;;;15.88;8.52;;;;;;;;;;4961608;28;20054;-67
2022/05/31 06:48:32;;;;;;;15.95;7.88;;;;;;;;;;4964250;28;20046;-70
2022/05/31 06:50:57;;;;;;;17.10;8.65;;;;;;;;;;4964240;28;20051;-68
2022/05/31 06:58:52;;;;;;;18.65;8.88;;;;;;;;;;4969366;28;19930;-69
2022/05/31 07:01:19;;;;;;;18.67;8.75;;;;;;;;;;4966382;28;20058;-71
2022/05/31 07:03:45;;;;;;;19.67;9.20;;;;;;;;;;4967946;28;20169;-72
2022/05/31 07:06:11;;;;;;;22.58;8.70;;;;;;;;;;4967177;28;20556;-71
2022/05/31 07:08:37;;;;;;;16.50;8.90;;;;;;;;;;4969874;28;20054;-71
2022/05/31 07:11:06;;;;;;;19.60;7.95;;;;;;;;;;4966943;28;20039;-75
2022/05/31 07:13:32;;;;;;;19.50;8.45;;;;;;;;;;4963116;28;20061;-69
2022/05/31 07:16:02;;;;;;;17.50;7.95;;;;;;;;;;4968676;28;20807;-72
2022/05/31 07:18:28;;;;;;;20.65;8.88;;;;;;;;;;4965799;28;20067;-71
2022/05/31 07:20:55;;;;;;;17.42;8.73;;;;;;;;;;4966757;28;20046;-69
2022/05/31 07:23:21;;;;;;;23.95;8.40;;;;;;;;;;4954818;28;20077;-71
2022/05/31 07:25:47;;;;;;;23.33;8.95;;;;;;;;;;4959718;28;20529;-69
2022/05/31 07:28:13;;;;;;;13.85;8.10;;;;;;;;;;4965909;28;20054;-69
2022/05/31 07:30:39;;;;;;;17.50;8.32;;;;;;;;;;4965098;28;20054;-70
2022/05/31 07:33:05;;;;;;;18.23;7.72;;;;;;;;;;4968330;28;20085;-69
2022/05/31 07:35:31;;;;;;;21.48;8.10;;;;;;;;;;4965331;28;20109;-69
2022/05/31 07:37:57;;;;;;;20.77;8.00;;;;;;;;;;4961110;28;20042;-70
2022/05/31 07:40:23;;;;;;;15.75;7.85;;;;;;;;;;4962380;28;20150;-70
2022/05/31 07:42:49;;;;;;;16.50;7.78;;;;;;;;;;4961398;28;20049;-70
2022/05/31 07:45:15;;;;;;;22.52;8.63;;;;;;;;;;4965499;28;20102;-72
2022/05/31 07:47:40;;;;;;;17.85;8.57;;;;;;;;;;4967851;28;20106;-73
2022/05/31 07:50:06;;;;;;;17.92;8.38;;;;;;;;;;4964454;28;20066;-73
2022/05/31 07:52:33;;;;;;;16.83;8.30;;;;;;;;;;4964163;28;20046;-72
2022/05/31 07:54:59;;;;;;;20.65;8.48;;;;;;;;;;4968364;28;20042;-72
2022/05/31 08:00:20;;;;;;;22.98;7.45;;;;;;;;;;4913319;29;20059;-71
2022/05/31 08:02:46;;;;;;;17.13;7.65;;;;;;;;;;4896959;29;20060;-70
2022/05/31 08:05:12;;;;;;;24.73;7.82;;;;;;;;;;4908221;29;20049;-71
2022/05/31 08:07:39;;;;;;;21.98;7.68;;;;;;;;;;4905385;29;20048;-70
2022/05/31 08:10:06;;;;;;;16.45;7.75;;;;;;;;;;4903155;29;20522;-70
2022/05/31 08:12:32;;;;;;;22.77;7.38;;;;;;;;;;4909391;29;20056;-68
2022/05/31 08:14:58;;;;;;;19.70;7.13;;;;;;;;;;4914262;29;20079;-70
2022/05/31 08:17:24;;;;;;;19.42;7.50;;;;;;;;;;4894990;29;20063;-69
2022/05/31 08:19:50;;;;;;;14.93;7.07;;;;;;;;;;4903592;29;20055;-68
2022/05/31 08:22:16;;;;;;;25.13;8.07;;;;;;;;;;4901641;29;20051;-68
2022/05/31 08:24:42;;;;;;;18.50;7.32;;;;;;;;;;4908892;29;20545;-73
2022/05/31 08:27:08;;;;;;;20.75;7.18;;;;;;;;;;4909270;29;20063;-76
2022/05/31 08:29:34;;;;;;;13.95;6.57;;;;;;;;;;4906204;29;20056;-71
2022/05/31 08:32:00;;;;;;;15.85;6.60;;;;;;;;;;4898129;29;20176;-70
2022/05/31 08:34:29;;;;;;;15.10;6.50;;;;;;;;;;4904994;29;20221;-71
2022/05/31 08:36:55;;;;;;;15.35;6.70;;;;;;;;;;4928588;28;20050;-74
2022/05/31 08:39:22;;;;;;;15.60;6.38;;;;;;;;;;4955709;28;20169;-72
2022/05/31 08:41:51;;;;;;;24.05;7.30;;;;;;;;;;4964621;28;20059;-73
2022/05/31 08:44:28;;;;;;;14.05;6.30;;;;;;;;;;4963383;28;20051;-71
2022/05/31 08:47:01;;;;;;;14.90;6.60;;;;;;;;;;4967691;28;20396;-72
2022/05/31 08:52:54;;;;;;;23.17;7.38;;;;;;;;;;4965770;28;20050;-72
2022/05/31 08:58:26;;;;;;;14.18;6.60;;;;;;;;;;4966401;28;20065;-71
2022/05/31 09:00:57;;;;;;;16.45;6.55;;;;;;;;;;4965899;28;20262;-72
2022/05/31 09:03:30;;;;;;;13.05;5.88;;;;;;;;;;4965314;28;20062;-75
2022/05/31 09:06:05;;;;;;;18.15;6.63;;;;;;;;;;4968366;28;20058;-72
2022/05/31 09:08:36;;;;;;;13.15;6.07;;;;;;;;;;4969065;28;20050;-70
2022/05/31 09:11:08;;;;;;;17.55;6.30;;;;;;;;;;4959126;28;20109;-69
2022/05/31 09:13:43;;;;;;;15.25;6.18;;;;;;;;;;4963745;28;20202;-69
2022/05/31 09:16:45;;;;;;;14.05;6.15;;;;;;;;;;4965155;28;20396;-70
2022/05/31 09:19:36;;;;;;;16.25;6.00;;;;;;;;;;4959862;28;20611;-76
2022/05/31 09:22:03;;;;;;;16.25;6.45;;;;;;;;;;4924177;29;20491;-69
2022/05/31 09:24:30;;;;;;;15.48;6.13;;;;;;;;;;4941163;28;20139;-70
2022/05/31 09:27:13;;;;;;;19.50;5.95;;;;;;;;;;4940650;28;20179;-72
2022/05/31 09:30:03;;;;;;;13.43;5.80;;;;;;;;;;4942660;28;20065;-70
2022/05/31 09:32:40;;;;;;;14.32;6.00;;;;;;;;;;4941583;28;20055;-72
2022/05/31 09:35:24;;;;;;;14.40;6.40;;;;;;;;;;4935701;28;20109;-71
2022/05/31 09:38:27;;;;;;;14.53;5.80;;;;;;;;;;4939911;28;20047;-70
2022/05/31 09:41:06;;;;;;;14.18;5.65;;;;;;;;;;4941285;28;20074;-70
2022/05/31 09:43:37;;;;;;;14.02;6.07;;;;;;;;;;4940377;28;20895;-73
2022/05/31 09:46:10;;;;;;;12.18;5.65;;;;;;;;;;4940758;28;20071;-69
2022/05/31 09:48:56;;;;;;;12.63;6.07;;;;;;;;;;4945854;28;20255;-71
2022/05/31 09:51:33;;;;;;;14.02;5.50;;;;;;;;;;4935427;28;20362;-69
2022/05/31 09:59:29;;;;;;;;;;;;;;;;;;4956866;28;20063;-76
2022/05/31 10:01:55;;;;;;;18.70;5.70;;;;;;;;;;4967214;28;19994;-75
2022/05/31 10:04:26;;;;;;;19.70;5.75;;;;;;;;;;4976473;28;20070;-73
2022/05/31 10:07:04;;;;;;;16.42;5.90;;;;;;;;;;4965925;28;20039;-75
2022/05/31 10:09:35;;;;;;;15.20;5.43;;;;;;;;;;4968343;28;20063;-75
2022/05/31 10:12:10;;;;;;;12.80;5.70;;;;;;;;;;4970405;28;20063;-76
2022/05/31 10:14:41;;;;;;;15.27;5.20;;;;;;;;;;4970666;28;20058;-76
2022/05/31 10:17:28;;;;;;;13.55;5.40;;;;;;;;;;4970518;28;20058;-73
2022/05/31 10:20:09;;;;;;;11.60;5.63;;;;;;;;;;4973293;28;20061;-74
2022/05/31 10:22:36;;;;;;;15.48;4.97;;;;;;;;;;4966120;28;20121;-75
2022/05/31 10:25:46;;;;;;;19.00;5.07;;;;;;;;;;4969504;28;20047;-72
2022/05/31 10:28:31;;;;;;;13.50;4.97;;;;;;;;;;4887860;29;20052;-73
2022/05/31 10:31:06;;;;;;;17.00;5.53;;;;;;;;;;4891423;29;20056;-69
2022/05/31 10:33:34;;;;;;;12.23;5.40;;;;;;;;;;4889688;29;20072;-70
2022/05/31 10:36:15;;;;;;;13.18;4.97;;;;;;;;;;4889464;29;20419;-70
2022/05/31 10:38:45;;;;;;;13.98;5.28;;;;;;;;;;4888418;29;20100;-70
2022/05/31 10:41:29;;;;;;;11.00;5.10;;;;;;;;;;4886935;29;20060;-71
2022/05/31 10:44:15;;;;;;;12.13;5.18;;;;;;;;;;4888312;29;20057;-69
2022/05/31 10:46:45;;;;;;;15.10;5.53;;;;;;;;;;4886096;29;20048;-72
2022/05/31 10:49:18;;;;;;;10.73;4.50;;;;;;;;;;4891014;29;20434;-71
2022/05/31 10:52:24;;;;;;;10.98;5.07;;;;;;;;;;4891304;29;20057;-71
2022/05/31 10:55:09;;;;;;;8.00;4.40;;;;;;;;;;4838532;29;20054;-70
2022/05/31 10:57:53;;;;;;;11.07;4.55;;;;;;;;;;4835129;29;20435;-74
2022/05/31 11:00:24;;;;;;;12.55;4.55;;;;;;;;;;4842039;29;21923;-72
2022/05/31 11:03:12;;;;;;;16.08;5.10;;;;;;;;;;4897330;29;20128;-73
2022/05/31 11:05:53;;;;;;;12.98;4.60;;;;;;;;;;4909407;29;20128;-76
2022/05/31 11:12:04;;;;;;;16.35;4.45;;;;;;;;;;4896187;29;20100;-73
2022/05/31 11:14:49;;;;;;;13.23;3.75;;;;;;;;;;4892302;29;20052;-72
2022/05/31 11:17:37;;;;;;;11.75;3.72;;;;;;;;;;4891229;29;20884;-76
2022/05/31 11:20:17;;;;;;;11.77;3.17;;;;;;;;;;4891954;29;20048;-72
2022/05/31 11:23:27;;;;;;;9.82;4.00;;;;;;;;;;4888186;29;20053;-75
2022/05/31 11:26:11;;;;;;;8.68;3.25;;;;;;;;;;4888379;29;20359;-75
2022/05/31 11:29:11;;;;;;;9.68;3.80;;;;;;;;;;4888318;29;20502;-73
2022/05/31 11:32:03;;;;;;;11.10;3.50;;;;;;;;;;4913314;29;20151;-74
2022/05/31 11:34:45;;;;;;;9.18;4.05;;;;;;;;;;4921642;29;20056;-73
2022/05/31 11:37:53;;;;;;;8.57;3.40;;;;;;;;;;4927845;29;20482;-75
2022/05/31 11:40:46;;;;;;;10.88;3.75;;;;;;;;;;4868161;29;20056;-76
2022/05/31 11:43:34;;;;;;;11.00;3.38;;;;;;;;;;4872087;29;20618;-72
2022/05/31 11:46:18;;;;;;;10.30;3.28;;;;;;;;;;4872237;29;20164;-73
2022/05/31 11:48:57;;;;;;;11.48;3.38;;;;;;;;;;4902570;29;20478;-73
2022/05/31 11:51:32;;;;;;;12.35;4.22;;;;;;;;;;4921260;29;20063;-75
2022/05/31 11:54:23;;;;;;;8.48;3.67;;;;;;;;;;4925271;29;20413;-74
2022/05/31 11:56:55;;;;;;;11.52;4.18;;;;;;;;;;4923607;29;20441;-73
2022/05/31 11:59:28;;;;;;;13.45;3.67;;;;;;;;;;4924155;29;20105;-72
2022/05/31 12:02:18;;;;;;;7.85;3.67;;;;;;;;;;4924328;29;20867;-74
2022/05/31 12:04:54;;;;;;;9.55;3.80;;;;;;;;;;4902724;29;20056;-75
2022/05/31 12:07:31;;;;;;;11.27;3.42;;;;;;;;;;4921925;29;20714;-73
2022/05/31 12:10:21;;;;;;;8.70;3.00;;;;;;;;;;4921566;29;20229;-75
2022/05/31 12:12:49;;;;;;;8.43;3.45;;;;;;;;;;4920766;29;20106;-75
2022/05/31 12:15:21;;;;;;;9.25;3.00;;;;;;;;;;4919701;29;20047;-75
2022/05/31 12:17:51;;;;;;;9.65;3.40;;;;;;;;;;4948057;28;20050;-73
2022/05/31 12:20:27;;;;;;;12.07;3.25;;;;;;;;;;4962755;28;20078;-75
2022/05/31 12:23:17;;;;;;;18.25;3.30;;;;;;;;;;4966537;28;20126;-75
2022/05/31 12:25:48;;;;;;;12.45;3.50;;;;;;;;;;4965892;28;20431;-76
2022/05/31 12:28:24;;;;;;;10.13;3.30;;;;;;;;;;4965821;28;20057;-76
2022/05/31 12:31:14;;;;;;;9.63;3.33;;;;;;;;;;4962988;28;20059;-75
2022/05/31 12:33:47;;;;;;;7.50;3.28;;;;;;;;;;4960735;28;20094;-73
2022/05/31 12:36:18;;;;;;;12.82;3.53;;;;;;;;;;4962926;28;20053;-75
2022/05/31 12:38:59;;;;;;;10.90;3.20;;;;;;;;;;4962814;28;20057;-75
2022/05/31 12:41:43;;;;;;;9.48;3.30;;;;;;;;;;4959387;28;20133;-76
2022/05/31 12:44:15;;;;;;;9.65;3.30;;;;;;;;;;4953847;28;20043;-74
2022/05/31 12:46:46;;;;;;;11.98;3.60;;;;;;;;;;4960976;28;20051;-77
2022/05/31 12:49:20;;;;;;;10.43;3.38;;;;;;;;;;4961148;28;20050;-75
2022/05/31 12:54:56;;;;;;;7.68;3.05;;;;;;;;;;4884191;29;20061;-75
2022/05/31 13:00:49;;;;;;;12.60;3.15;;;;;;;;;;4887075;29;20058;-74
2022/05/31 13:03:33;;;;;;;7.40;2.63;;;;;;;;;;4881717;29;20072;-73
2022/05/31 13:06:11;;;;;;;12.20;2.75;;;;;;;;;;4884134;29;20130;-73
2022/05/31 13:08:49;;;;;;;13.82;2.85;;;;;;;;;;4879592;29;20156;-73
2022/05/31 13:20:18;;;;;;;7.32;2.60;;;;;;;;;;4887180;29;20107;-74
2022/05/31 13:22:50;;;;;;;8.77;2.80;;;;;;;;;;4881504;29;20044;-74
2022/05/31 13:25:45;;;;;;;6.72;2.55;;;;;;;;;;4912527;28;20338;-73
2022/05/31 13:28:42;;;;;;;7.90;2.53;;;;;;;;;;4960257;28;20155;-74
2022/05/31 13:31:33;;;;;;;8.98;2.42;;;;;;;;;;4952697;28;20043;-73
2022/05/31 13:34:02;;;;;;;7.85;2.90;;;;;;;;;;4967226;28;20716;-74
2022/05/31 13:36:31;;;;;;;13.55;2.63;;;;;;;;;;4962946;28;20062;-72
2022/05/31 13:39:05;;;;;;;7.55;2.78;;;;;;;;;;4963233;28;20050;-75
2022/05/31 13:41:32;;;;;;;8.63;2.67;;;;;;;;;;4964498;28;20138;-78
2022/05/31 13:44:01;;;;;;;11.15;2.80;;;;;;;;;;4963546;28;20047;-73
2022/05/31 13:46:37;;;;;;;8.35;2.55;;;;;;;;;;4962659;28;20055;-74
2022/05/31 13:49:25;;;;;;;8.77;2.72;;;;;;;;;;4964488;28;20042;-73
2022/05/31 13:52:00;;;;;;;9.48;2.38;;;;;;;;;;4961588;28;20043;-75
2022/05/31 13:54:28;;;;;;;6.30;2.25;;;;;;;;;;4962783;28;20055;-71
2022/05/31 13:57:00;;;;;;;7.88;2.53;;;;;;;;;;4964045;28;20102;-74
2022/05/31 13:59:43;;;;;;;8.60;2.50;;;;;;;;;;4961987;28;20058;-73
2022/05/31 14:02:19;;;;;;;9.45;2.88;;;;;;;;;;4960876;28;20058;-73
2022/05/31 14:04:50;;;;;;;9.20;2.55;;;;;;;;;;4960675;28;20051;-73
2022/05/31 14:07:19;;;;;;;7.30;2.63;;;;;;;;;;4953984;28;20291;-73
2022/05/31 14:09:58;;;;;;;5.07;2.00;;;;;;;;;;4966939;28;20042;-78
2022/05/31 14:12:27;;;;;;;6.72;2.40;;;;;;;;;;4962041;28;20153;-73
2022/05/31 14:14:53;;;;;;;5.93;2.50;;;;;;;;;;4964339;28;20512;-74
2022/05/31 14:17:34;;;;;;;7.07;2.78;;;;;;;;;;4962733;28;20051;-74
2022/05/31 14:20:00;;;;;;;7.00;2.22;;;;;;;;;;4963583;28;20444;-73
2022/05/31 14:22:30;;;;;;;8.23;2.70;;;;;;;;;;4953943;28;21092;-74
2022/05/31 14:24:58;;;;;;;9.45;2.90;;;;;;;;;;4961646;28;21007;-74
2022/05/31 14:27:26;;;;;;;4.85;2.25;;;;;;;;;;4971949;28;20053;-73
2022/05/31 14:30:01;;;;;;;7.68;2.50;;;;;;;;;;4963036;28;20101;-75
2022/05/31 14:32:49;;;;;;;7.15;2.50;;;;;;;;;;4965694;28;20059;-74
2022/05/31 14:35:31;;;;;;;10.35;2.40;;;;;;;;;;4960062;28;20514;-77
2022/05/31 14:37:58;;;;;;;10.80;2.70;;;;;;;;;;4964664;28;20074;-78
2022/05/31 14:40:30;;;;;;;6.95;2.42;;;;;;;;;;4959850;28;20169;-75
2022/05/31 14:43:07;;;;;;;11.40;2.65;;;;;;;;;;4964388;28;20154;-74
2022/05/31 14:45:45;;;;;;;7.90;3.47;;;;;;;;;;4962905;28;20085;-74
2022/05/31 14:48:39;;;;;;;10.02;2.83;;;;;;;;;;4964881;28;20470;-74
2022/05/31 14:51:20;;;;;;;10.75;3.13;;;;;;;;;;4960378;28;20039;-73
2022/05/31 14:53:50;;;;;;;9.23;2.55;;;;;;;;;;4963616;28;20046;-74
2022/05/31 14:56:31;;;;;;;16.73;2.60;;;;;;;;;;4958729;28;20047;-74
2022/05/31 14:59:03;;;;;;;8.38;2.90;;;;;;;;;;4962745;28;20090;-72
2022/05/31 15:01:46;;;;;;;9.88;2.63;;;;;;;;;;4965928;28;20935;-75
2022/05/31 15:04:43;;;;;;;9.00;2.80;;;;;;;;;;4961686;28;20448;-77
2022/05/31 15:07:17;;;;;;;8.95;2.63;;;;;;;;;;4961848;28;20043;-74
2022/05/31 15:09:44;;;;;;;12.77;2.58;;;;;;;;;;4960619;28;20054;-75
2022/05/31 15:20:44;;;;;;;8.98;2.53;;;;;;;;;;4970429;28;20131;-77
2022/05/31 15:23:17;;;;;;;7.82;2.50;;;;;;;;;;4967686;28;20062;-78
2022/05/31 15:25:43;;;;;;;8.13;2.70;;;;;;;;;;4965410;28;20046;-79
2022/05/31 15:28:10;;;;;;;10.50;2.50;;;;;;;;;;4965865;28;20047;-79
2022/05/31 15:30:36;;;;;;;11.40;3.17;;;;;;;;;;4964861;28;20050;-77
2022/05/31 15:33:02;;;;;;;7.85;2.33;;;;;;;;;;4965700;28;20539;-79
2022/05/31 15:35:30;;;;;;;10.00;2.40;;;;;;;;;;4972165;28;20051;-80
2022/05/31 15:38:17;;;;;;;6.55;2.38;;;;;;;;;;4975415;28;20063;-80
2022/05/31 15:40:43;;;;;;;9.38;2.30;;;;;;;;;;4973054;28;20405;-77
2022/05/31 15:43:10;;;;;;;11.70;3.50;;;;;;;;;;4975063;28;20078;-79
2022/05/31 15:45:36;;;;;;;9.18;3.22;;;;;;;;;;4973444;28;20051;-79
2022/05/31 15:48:02;;;;;;;13.73;3.10;;;;;;;;;;4969082;28;20051;-79
2022/05/31 15:50:28;;;;;;;12.15;2.95;;;;;;;;;;4973168;28;20055;-81
2022/05/31 15:52:54;;;;;;;15.82;2.95;;;;;;;;;;4985040;28;20054;-76